sensor_id;sensor_type;location;lat;lon;timestamp;pressure;altitude;pressure_sealevel;temperature;humidity
46303;BME280;32029;51.358;5.628;2023-02-18T00:01:27;102055.22;;;13.90;91.54
46303;BME280;32029;51.358;5.628;2023-02-18T00:03:57;102057.31;;;13.88;91.44
46303;BME280;32029;51.358;5.628;2023-02-18T00:06:27;102038.19;;;13.87;91.68
46303;BME280;32029;51.358;5.628;2023-02-18T00:08:54;102050.56;;;13.91;91.82
46303;BME280;32029;51.358;5.628;2023-02-18T00:11:22;102027.09;;;13.95;91.51
46303;BME280;32029;51.358;5.628;2023-02-18T00:13:52;102025.03;;;13.97;91.22
46303;BME280;32029;51.358;5.628;2023-02-18T00:16:20;102023.28;;;13.96;91.27
46303;BME280;32029;51.358;5.628;2023-02-18T00:18:50;101983.44;;;13.67;91.49
46303;BME280;32029;51.358;5.628;2023-02-18T00:21:20;101977.97;;;13.59;91.74
46303;BME280;32029;51.358;5.628;2023-02-18T00:23:48;102018.88;;;13.87;91.97
46303;BME280;32029;51.358;5.628;2023-02-18T00:26:16;102020.25;;;13.83;92.28
46303;BME280;32029;51.358;5.628;2023-02-18T00:28:45;102033.38;;;13.81;92.64
46303;BME280;32029;51.358;5.628;2023-02-18T00:31:25;102023.38;;;13.80;93.06
46303;BME280;32029;51.358;5.628;2023-02-18T00:33:52;101990.75;;;13.52;93.47
46303;BME280;32029;51.358;5.628;2023-02-18T00:36:21;102033.09;;;13.67;93.93
46303;BME280;32029;51.358;5.628;2023-02-18T00:38:50;101984.59;;;13.42;94.51
46303;BME280;32029;51.358;5.628;2023-02-18T00:41:19;102013.78;;;13.67;94.89
46303;BME280;32029;51.358;5.628;2023-02-18T00:43:46;101975.63;;;13.40;95.35
46303;BME280;32029;51.358;5.628;2023-02-18T00:46:13;102014.47;;;13.69;95.80
46303;BME280;32029;51.358;5.628;2023-02-18T00:48:40;101994.50;;;13.59;96.18
46303;BME280;32029;51.358;5.628;2023-02-18T00:51:09;102009.31;;;13.66;96.38
46303;BME280;32029;51.358;5.628;2023-02-18T00:53:37;101958.78;;;13.35;96.86
46303;BME280;32029;51.358;5.628;2023-02-18T00:56:05;102001.94;;;13.59;97.27
46303;BME280;32029;51.358;5.628;2023-02-18T00:58:35;101938.13;;;13.22;97.34
46303;BME280;32029;51.358;5.628;2023-02-18T01:01:03;101992.66;;;13.52;97.68
46303;BME280;32029;51.358;5.628;2023-02-18T01:03:30;101981.81;;;13.50;98.11
46303;BME280;32029;51.358;5.628;2023-02-18T01:05:58;101914.91;;;13.09;98.19
46303;BME280;32029;51.358;5.628;2023-02-18T01:08:26;101967.31;;;13.48;98.49
46303;BME280;32029;51.358;5.628;2023-02-18T01:10:54;101976.31;;;13.50;98.50
46303;BME280;32029;51.358;5.628;2023-02-18T01:13:24;101975.94;;;13.45;98.83
46303;BME280;32029;51.358;5.628;2023-02-18T01:15:51;101957.53;;;13.37;98.84
46303;BME280;32029;51.358;5.628;2023-02-18T01:18:19;101931.25;;;13.18;98.77
46303;BME280;32029;51.358;5.628;2023-02-18T01:20:47;101969.78;;;13.43;99.08
46303;BME280;32029;51.358;5.628;2023-02-18T01:23:14;101902.00;;;13.01;98.99
46303;BME280;32029;51.358;5.628;2023-02-18T01:25:41;101878.47;;;12.82;99.13
46303;BME280;32029;51.358;5.628;2023-02-18T01:28:10;101971.19;;;13.31;99.81
46303;BME280;32029;51.358;5.628;2023-02-18T01:30:37;101942.66;;;13.07;99.94
46303;BME280;32029;51.358;5.628;2023-02-18T01:33:05;101967.25;;;13.25;100.00
46303;BME280;32029;51.358;5.628;2023-02-18T01:35:37;101962.78;;;13.24;100.00
46303;BME280;32029;51.358;5.628;2023-02-18T01:38:07;101958.63;;;13.20;100.00
46303;BME280;32029;51.358;5.628;2023-02-18T01:40:42;101956.06;;;13.18;100.00
46303;BME280;32029;51.358;5.628;2023-02-18T01:43:11;101945.03;;;13.10;100.00
46303;BME280;32029;51.358;5.628;2023-02-18T01:51:38;101943.47;;;13.16;100.00
46303;BME280;32029;51.358;5.628;2023-02-18T01:54:08;101936.25;;;13.15;100.00
46303;BME280;32029;51.358;5.628;2023-02-18T01:57:08;101932.97;;;13.19;100.00
46303;BME280;32029;51.358;5.628;2023-02-18T01:59:38;101888.94;;;12.95;100.00
46303;BME280;32029;51.358;5.628;2023-02-18T02:02:14;101930.88;;;13.21;100.00
46303;BME280;32029;51.358;5.628;2023-02-18T02:04:42;101906.13;;;13.05;100.00
46303;BME280;32029;51.358;5.628;2023-02-18T02:07:10;101928.16;;;13.13;100.00
46303;BME280;32029;51.358;5.628;2023-02-18T02:09:38;101916.81;;;13.08;100.00
46303;BME280;32029;51.358;5.628;2023-02-18T02:15:25;101920.22;;;13.10;100.00
46303;BME280;32029;51.358;5.628;2023-02-18T02:18:23;101915.09;;;13.07;100.00
46303;BME280;32029;51.358;5.628;2023-02-18T02:35:05;101901.69;;;12.96;100.00
46303;BME280;32029;51.358;5.628;2023-02-18T02:40:14;101907.69;;;13.08;100.00
46303;BME280;32029;51.358;5.628;2023-02-18T02:48:24;101880.25;;;13.14;100.00
46303;BME280;32029;51.358;5.628;2023-02-18T02:51:08;101883.19;;;13.13;100.00
46303;BME280;32029;51.358;5.628;2023-02-18T02:53:39;101783.75;;;12.52;100.00
46303;BME280;32029;51.358;5.628;2023-02-18T02:56:12;101866.84;;;13.11;100.00
46303;BME280;32029;51.358;5.628;2023-02-18T02:58:40;101863.91;;;13.13;100.00
46303;BME280;32029;51.358;5.628;2023-02-18T03:04:12;101850.19;;;13.05;100.00
46303;BME280;32029;51.358;5.628;2023-02-18T03:10:10;101849.31;;;13.04;100.00
46303;BME280;32029;51.358;5.628;2023-02-18T03:15:22;101846.25;;;12.99;100.00
46303;BME280;32029;51.358;5.628;2023-02-18T03:18:03;101822.50;;;12.90;100.00
46303;BME280;32029;51.358;5.628;2023-02-18T03:20:40;101830.94;;;12.96;100.00
46303;BME280;32029;51.358;5.628;2023-02-18T03:23:12;101823.72;;;12.95;100.00
46303;BME280;32029;51.358;5.628;2023-02-18T03:25:42;101826.28;;;12.97;100.00
46303;BME280;32029;51.358;5.628;2023-02-18T03:28:16;101819.91;;;12.96;100.00
46303;BME280;32029;51.358;5.628;2023-02-18T03:30:47;101803.72;;;12.93;100.00
46303;BME280;32029;51.358;5.628;2023-02-18T03:33:29;101814.41;;;12.96;100.00
46303;BME280;32029;51.358;5.628;2023-02-18T03:35:57;101808.03;;;12.96;100.00
46303;BME280;32029;51.358;5.628;2023-02-18T03:38:30;101801.47;;;12.97;100.00
46303;BME280;32029;51.358;5.628;2023-02-18T03:40:58;101782.22;;;12.89;100.00
46303;BME280;32029;51.358;5.628;2023-02-18T03:43:25;101794.97;;;12.90;100.00
46303;BME280;32029;51.358;5.628;2023-02-18T03:45:52;101796.34;;;12.86;100.00
46303;BME280;32029;51.358;5.628;2023-02-18T03:48:19;101777.47;;;12.74;100.00
46303;BME280;32029;51.358;5.628;2023-02-18T03:50:46;101785.88;;;12.81;100.00
46303;BME280;32029;51.358;5.628;2023-02-18T03:53:13;101785.38;;;12.78;100.00
46303;BME280;32029;51.358;5.628;2023-02-18T03:55:39;101785.72;;;12.74;100.00
46303;BME280;32029;51.358;5.628;2023-02-18T03:58:06;101783.31;;;12.71;100.00
46303;BME280;32029;51.358;5.628;2023-02-18T04:00:33;101742.44;;;12.52;100.00
46303;BME280;32029;51.358;5.628;2023-02-18T04:02:59;101768.19;;;12.67;100.00
46303;BME280;32029;51.358;5.628;2023-02-18T04:05:26;101765.47;;;12.59;100.00
46303;BME280;32029;51.358;5.628;2023-02-18T04:07:54;101769.25;;;12.66;100.00
46303;BME280;32029;51.358;5.628;2023-02-18T04:10:20;101750.34;;;12.55;100.00
46303;BME280;32029;51.358;5.628;2023-02-18T04:12:48;101753.06;;;12.63;100.00
46303;BME280;32029;51.358;5.628;2023-02-18T04:15:15;101732.13;;;12.54;100.00
46303;BME280;32029;51.358;5.628;2023-02-18T04:17:41;101736.25;;;12.58;100.00
46303;BME280;32029;51.358;5.628;2023-02-18T04:20:08;101743.06;;;12.70;100.00
46303;BME280;32029;51.358;5.628;2023-02-18T04:22:35;101737.91;;;12.67;100.00
46303;BME280;32029;51.358;5.628;2023-02-18T04:25:02;101723.06;;;12.45;100.00
46303;BME280;32029;51.358;5.628;2023-02-18T04:27:28;101738.13;;;12.58;100.00
46303;BME280;32029;51.358;5.628;2023-02-18T04:29:55;101740.38;;;12.54;100.00
46303;BME280;32029;51.358;5.628;2023-02-18T04:32:22;101729.41;;;12.46;100.00
46303;BME280;32029;51.358;5.628;2023-02-18T04:34:49;101745.56;;;12.49;100.00
46303;BME280;32029;51.358;5.628;2023-02-18T04:37:15;101738.72;;;12.45;100.00
46303;BME280;32029;51.358;5.628;2023-02-18T04:39:42;101740.59;;;12.44;100.00
46303;BME280;32029;51.358;5.628;2023-02-18T04:42:09;101741.47;;;12.45;100.00
46303;BME280;32029;51.358;5.628;2023-02-18T04:44:36;101738.72;;;12.45;100.00
46303;BME280;32029;51.358;5.628;2023-02-18T04:47:04;101739.38;;;12.47;100.00
46303;BME280;32029;51.358;5.628;2023-02-18T04:49:32;101700.22;;;12.29;100.00
46303;BME280;32029;51.358;5.628;2023-02-18T04:51:59;101738.34;;;12.48;100.00
46303;BME280;32029;51.358;5.628;2023-02-18T04:54:26;101746.97;;;12.45;100.00
46303;BME280;32029;51.358;5.628;2023-02-18T04:56:52;101736.66;;;12.39;100.00
46303;BME280;32029;51.358;5.628;2023-02-18T04:59:19;101749.03;;;12.43;100.00
46303;BME280;32029;51.358;5.628;2023-02-18T05:01:46;101750.72;;;12.44;100.00
46303;BME280;32029;51.358;5.628;2023-02-18T05:04:12;101746.28;;;12.43;100.00
46303;BME280;32029;51.358;5.628;2023-02-18T05:06:39;101729.41;;;12.46;100.00
46303;BME280;32029;51.358;5.628;2023-02-18T05:09:09;101722.19;;;12.45;100.00
46303;BME280;32029;51.358;5.628;2023-02-18T05:11:36;101729.22;;;12.47;100.00
46303;BME280;32029;51.358;5.628;2023-02-18T05:14:03;101725.63;;;12.47;100.00
46303;BME280;32029;51.358;5.628;2023-02-18T05:16:30;101711.19;;;12.45;100.00
46303;BME280;32029;51.358;5.628;2023-02-18T05:18:56;101690.22;;;12.36;100.00
46303;BME280;32029;51.358;5.628;2023-02-18T05:21:23;101712.59;;;12.41;100.00
46303;BME280;32029;51.358;5.628;2023-02-18T05:23:50;101703.94;;;12.44;100.00
46303;BME280;32029;51.358;5.628;2023-02-18T05:26:17;101711.84;;;12.47;100.00
46303;BME280;32029;51.358;5.628;2023-02-18T05:28:43;101704.44;;;12.47;100.00
46303;BME280;32029;51.358;5.628;2023-02-18T05:31:10;101696.56;;;12.44;100.00
46303;BME280;32029;51.358;5.628;2023-02-18T05:33:37;101612.66;;;11.93;100.00
46303;BME280;32029;51.358;5.628;2023-02-18T05:36:04;101687.81;;;12.41;100.00
46303;BME280;32029;51.358;5.628;2023-02-18T05:38:30;101686.06;;;12.40;100.00
46303;BME280;32029;51.358;5.628;2023-02-18T05:40:57;101677.31;;;12.36;100.00
46303;BME280;32029;51.358;5.628;2023-02-18T05:43:24;101669.75;;;12.38;100.00
46303;BME280;32029;51.358;5.628;2023-02-18T05:45:50;101680.94;;;12.37;100.00
46303;BME280;32029;51.358;5.628;2023-02-18T05:48:17;101682.66;;;12.38;100.00
46303;BME280;32029;51.358;5.628;2023-02-18T05:50:44;101677.16;;;12.38;100.00
46303;BME280;32029;51.358;5.628;2023-02-18T05:53:10;101683.84;;;12.35;100.00
46303;BME280;32029;51.358;5.628;2023-02-18T05:55:37;101688.50;;;12.35;100.00
46303;BME280;32029;51.358;5.628;2023-02-18T05:58:04;101690.22;;;12.36;100.00
46303;BME280;32029;51.358;5.628;2023-02-18T06:00:31;101688.50;;;12.35;100.00
46303;BME280;32029;51.358;5.628;2023-02-18T06:02:58;101693.69;;;12.30;100.00
46303;BME280;32029;51.358;5.628;2023-02-18T06:05:24;101685.09;;;12.33;100.00
46303;BME280;32029;51.358;5.628;2023-02-18T06:07:51;101693.34;;;12.33;100.00
46303;BME280;32029;51.358;5.628;2023-02-18T06:10:18;101671.22;;;12.18;100.00
46303;BME280;32029;51.358;5.628;2023-02-18T06:12:44;101688.69;;;12.33;100.00
46303;BME280;32029;51.358;5.628;2023-02-18T06:15:11;101668.44;;;12.26;100.00
46303;BME280;32029;51.358;5.628;2023-02-18T06:17:38;101660.69;;;12.30;100.00
46303;BME280;32029;51.358;5.628;2023-02-18T06:20:05;101671.34;;;12.24;100.00
46303;BME280;32029;51.358;5.628;2023-02-18T06:22:32;101673.94;;;12.26;100.00
46303;BME280;32029;51.358;5.628;2023-02-18T06:24:58;101675.13;;;12.23;100.00
46303;BME280;32029;51.358;5.628;2023-02-18T06:27:25;101675.81;;;12.25;100.00
46303;BME280;32029;51.358;5.628;2023-02-18T06:29:52;101655.03;;;12.23;100.00
46303;BME280;32029;51.358;5.628;2023-02-18T06:32:18;101658.81;;;12.22;100.00
46303;BME280;32029;51.358;5.628;2023-02-18T06:34:45;101660.72;;;12.21;100.00
46303;BME280;32029;51.358;5.628;2023-02-18T06:37:12;101653.84;;;12.17;100.00
46303;BME280;32029;51.358;5.628;2023-02-18T06:39:39;101663.13;;;12.16;100.00
46303;BME280;32029;51.358;5.628;2023-02-18T06:42:05;101662.09;;;12.17;100.00
46303;BME280;32029;51.358;5.628;2023-02-18T06:44:32;101663.13;;;12.16;100.00
46303;BME280;32029;51.358;5.628;2023-02-18T06:46:59;101666.56;;;12.18;100.00
46303;BME280;32029;51.358;5.628;2023-02-18T06:49:26;101671.72;;;12.21;100.00
46303;BME280;32029;51.358;5.628;2023-02-18T06:51:52;101684.44;;;12.22;100.00
46303;BME280;32029;51.358;5.628;2023-02-18T06:54:19;101685.47;;;12.21;100.00
46303;BME280;32029;51.358;5.628;2023-02-18T06:56:45;101675.47;;;12.20;100.00
46303;BME280;32029;51.358;5.628;2023-02-18T06:59:12;101680.31;;;12.18;100.00
46303;BME280;32029;51.358;5.628;2023-02-18T07:01:39;101685.13;;;12.16;100.00
46303;BME280;32029;51.358;5.628;2023-02-18T07:04:06;101683.06;;;12.18;100.00
46303;BME280;32029;51.358;5.628;2023-02-18T07:06:32;101686.16;;;12.15;100.00
46303;BME280;32029;51.358;5.628;2023-02-18T07:08:59;101672.78;;;12.04;100.00
46303;BME280;32029;51.358;5.628;2023-02-18T07:11:26;101702.34;;;12.10;100.00
46303;BME280;32029;51.358;5.628;2023-02-18T07:13:52;101685.00;;;12.10;100.00
46303;BME280;32029;51.358;5.628;2023-02-18T07:16:19;101664.78;;;11.86;100.00
46303;BME280;32029;51.358;5.628;2023-02-18T07:18:46;101690.31;;;12.11;100.00
46303;BME280;32029;51.358;5.628;2023-02-18T07:21:12;101700.66;;;12.09;100.00
46303;BME280;32029;51.358;5.628;2023-02-18T07:23:39;101689.66;;;12.09;99.81
46303;BME280;32029;51.358;5.628;2023-02-18T07:26:08;101711.66;;;12.09;99.44
46303;BME280;32029;51.358;5.628;2023-02-18T07:28:35;101695.16;;;12.09;98.57
46303;BME280;32029;51.358;5.628;2023-02-18T07:31:03;101667.31;;;11.96;97.55
46303;BME280;32029;51.358;5.628;2023-02-18T07:33:30;101652.22;;;11.84;97.32
46303;BME280;32029;51.358;5.628;2023-02-18T07:35:59;101667.31;;;11.96;96.32
46303;BME280;32029;51.358;5.628;2023-02-18T07:38:27;101683.44;;;12.07;96.49
46303;BME280;32029;51.358;5.628;2023-02-18T07:40:56;101691.69;;;12.07;96.34
46303;BME280;32029;51.358;5.628;2023-02-18T07:43:23;101686.91;;;12.09;95.67
46303;BME280;32029;51.358;5.628;2023-02-18T07:45:49;101679.50;;;12.10;95.26
46303;BME280;32029;51.358;5.628;2023-02-18T07:48:16;101687.91;;;12.08;95.23
46303;BME280;32029;51.358;5.628;2023-02-18T07:50:44;101673.16;;;11.93;95.72
46303;BME280;32029;51.358;5.628;2023-02-18T07:53:13;101694.78;;;12.12;95.86
46303;BME280;32029;51.358;5.628;2023-02-18T07:55:40;101705.25;;;12.17;95.59
46303;BME280;32029;51.358;5.628;2023-02-18T07:58:24;101705.44;;;12.15;95.63
46303;BME280;32029;51.358;5.628;2023-02-18T08:00:52;101719.88;;;12.17;95.33
46303;BME280;32029;51.358;5.628;2023-02-18T08:03:24;101685.38;;;11.90;95.08
46303;BME280;32029;51.358;5.628;2023-02-18T08:05:51;101706.47;;;12.14;94.78
46303;BME280;32029;51.358;5.628;2023-02-18T08:08:20;101691.00;;;12.05;94.60
46303;BME280;32029;51.358;5.628;2023-02-18T08:10:48;101702.13;;;12.20;94.21
46303;BME280;32029;51.358;5.628;2023-02-18T08:13:15;101714.88;;;12.21;93.73
46303;BME280;32029;51.358;5.628;2023-02-18T08:15:42;101700.44;;;12.19;93.37
46303;BME280;32029;51.358;5.628;2023-02-18T08:18:16;101703.38;;;12.17;93.54
46303;BME280;32029;51.358;5.628;2023-02-18T08:20:43;101713.16;;;12.20;92.91
46303;BME280;32029;51.358;5.628;2023-02-18T08:23:10;101697.88;;;12.17;92.58
46303;BME280;32029;51.358;5.628;2023-02-18T08:25:36;101712.13;;;12.21;91.98
46303;BME280;32029;51.358;5.628;2023-02-18T08:28:04;101720.38;;;12.21;91.05
46303;BME280;32029;51.358;5.628;2023-02-18T08:30:31;101702.00;;;12.13;90.99
46303;BME280;32029;51.358;5.628;2023-02-18T08:32:57;101718.50;;;12.21;90.85
46303;BME280;32029;51.358;5.628;2023-02-18T08:35:24;101685.03;;;12.01;90.34
46303;BME280;32029;51.358;5.628;2023-02-18T08:37:51;101720.38;;;12.21;89.82
46303;BME280;32029;51.358;5.628;2023-02-18T08:40:17;101718.31;;;12.23;90.05
46303;BME280;32029;51.358;5.628;2023-02-18T08:42:44;101717.78;;;12.27;90.29
46303;BME280;32029;51.358;5.628;2023-02-18T08:45:11;101707.09;;;12.33;89.44
46303;BME280;32029;51.358;5.628;2023-02-18T08:47:37;101708.09;;;12.40;89.41
46303;BME280;32029;51.358;5.628;2023-02-18T08:50:04;101708.75;;;12.50;88.55
46303;BME280;32029;51.358;5.628;2023-02-18T08:52:31;101706.16;;;12.57;87.84
46303;BME280;32029;51.358;5.628;2023-02-18T08:54:58;101711.47;;;12.58;87.53
46303;BME280;32029;51.358;5.628;2023-02-18T08:57:26;101704.25;;;12.57;87.99
46303;BME280;32029;51.358;5.628;2023-02-18T08:59:53;101709.53;;;12.67;87.01
46303;BME280;32029;51.358;5.628;2023-02-18T09:02:20;101692.66;;;12.70;86.36
46303;BME280;32029;51.358;5.628;2023-02-18T09:04:47;101698.00;;;12.63;86.71
46303;BME280;32029;51.358;5.628;2023-02-18T09:07:13;101705.50;;;12.78;86.27
46303;BME280;32029;51.358;5.628;2023-02-18T09:09:40;101705.81;;;12.83;86.63
46303;BME280;32029;51.358;5.628;2023-02-18T09:12:07;101657.03;;;12.68;85.41
46303;BME280;32029;51.358;5.628;2023-02-18T09:14:34;101692.00;;;12.91;84.50
46303;BME280;32029;51.358;5.628;2023-02-18T09:17:01;101693.03;;;12.90;84.28
46303;BME280;32029;51.358;5.628;2023-02-18T09:19:27;101697.91;;;12.88;84.28
46303;BME280;32029;51.358;5.628;2023-02-18T09:21:54;101692.38;;;12.88;84.33
46303;BME280;32029;51.358;5.628;2023-02-18T09:24:22;101695.25;;;12.94;84.28
46303;BME280;32029;51.358;5.628;2023-02-18T09:26:50;101699.19;;;13.00;84.20
46303;BME280;32029;51.358;5.628;2023-02-18T09:29:16;101683.66;;;13.07;83.65
46303;BME280;32029;51.358;5.628;2023-02-18T09:31:45;101699.78;;;13.10;82.91
46303;BME280;32029;51.358;5.628;2023-02-18T09:34:12;101698.09;;;13.09;82.85
46303;BME280;32029;51.358;5.628;2023-02-18T09:36:38;101698.28;;;13.08;82.49
46303;BME280;32029;51.358;5.628;2023-02-18T09:39:05;101683.22;;;12.95;82.34
46303;BME280;32029;51.358;5.628;2023-02-18T09:41:42;101673.69;;;12.98;82.03
46303;BME280;32029;51.358;5.628;2023-02-18T09:44:40;101707.41;;;13.08;82.52
46303;BME280;32029;51.358;5.628;2023-02-18T09:47:12;101712.41;;;13.05;83.18
46303;BME280;32029;51.358;5.628;2023-02-18T09:49:44;101722.94;;;13.01;83.14
46303;BME280;32029;51.358;5.628;2023-02-18T09:52:31;101720.88;;;12.95;85.20
46303;BME280;32029;51.358;5.628;2023-02-18T09:54:59;101715.06;;;12.90;85.92
46303;BME280;32029;51.358;5.628;2023-02-18T10:00:33;101721.84;;;12.79;86.09
46303;BME280;32029;51.358;5.628;2023-02-18T10:03:05;101717.63;;;12.68;86.55
46303;BME280;32029;51.358;5.628;2023-02-18T10:05:35;101715.41;;;12.64;86.85
46303;BME280;32029;51.358;5.628;2023-02-18T10:08:05;101717.97;;;12.65;87.42
46303;BME280;32029;51.358;5.628;2023-02-18T10:10:43;101708.50;;;12.60;87.54
46303;BME280;32029;51.358;5.628;2023-02-18T10:13:20;101715.19;;;12.73;87.02
46303;BME280;32029;51.358;5.628;2023-02-18T10:15:49;101713.47;;;12.72;87.40
46303;BME280;32029;51.358;5.628;2023-02-18T10:18:26;101724.47;;;12.72;87.48
46303;BME280;32029;51.358;5.628;2023-02-18T10:21:03;101734.44;;;12.73;87.62
46303;BME280;32029;51.358;5.628;2023-02-18T10:23:32;101722.63;;;12.65;87.55
46303;BME280;32029;51.358;5.628;2023-02-18T10:26:02;101709.56;;;12.59;87.65
46303;BME280;32029;51.358;5.628;2023-02-18T10:28:31;101730.34;;;12.69;87.92
46303;BME280;32029;51.358;5.628;2023-02-18T10:31:08;101733.44;;;12.66;88.14
46303;BME280;32029;51.358;5.628;2023-02-18T10:33:44;101731.94;;;12.64;88.39
46303;BME280;32029;51.358;5.628;2023-02-18T10:38:59;101750.78;;;12.75;88.77
46303;BME280;32029;51.358;5.628;2023-02-18T10:49:57;101762.25;;;12.87;89.25
46303;BME280;32029;51.358;5.628;2023-02-18T10:52:27;101730.00;;;12.72;89.98
46303;BME280;32029;51.358;5.628;2023-02-18T10:55:00;101752.97;;;12.88;90.07
46303;BME280;32029;51.358;5.628;2023-02-18T10:57:30;101750.22;;;12.88;90.50
46303;BME280;32029;51.358;5.628;2023-02-18T11:02:37;101730.59;;;12.83;90.56
46303;BME280;32029;51.358;5.628;2023-02-18T11:05:19;101764.47;;;12.99;90.11
46303;BME280;32029;51.358;5.628;2023-02-18T11:07:50;101750.03;;;12.89;90.39
46303;BME280;32029;51.358;5.628;2023-02-18T11:10:24;101739.56;;;12.85;90.37
46303;BME280;32029;51.358;5.628;2023-02-18T11:13:12;101751.19;;;12.95;90.88
46303;BME280;32029;51.358;5.628;2023-02-18T11:16:04;101749.00;;;12.90;91.33
46303;BME280;32029;51.358;5.628;2023-02-18T11:18:42;101761.25;;;12.88;91.81
46303;BME280;32029;51.358;5.628;2023-02-18T11:21:30;101772.41;;;12.86;92.80
46303;BME280;32029;51.358;5.628;2023-02-18T11:23:57;101765.00;;;12.87;92.94
46303;BME280;32029;51.358;5.628;2023-02-18T11:26:33;101764.66;;;12.90;92.48
46303;BME280;32029;51.358;5.628;2023-02-18T11:29:05;101774.81;;;12.89;92.00
46303;BME280;32029;51.358;5.628;2023-02-18T11:31:54;101735.31;;;12.74;91.89
46303;BME280;32029;51.358;5.628;2023-02-18T11:34:26;101755.75;;;12.88;91.65
46303;BME280;32029;51.358;5.628;2023-02-18T11:36:55;101740.78;;;12.82;91.01
46303;BME280;32029;51.358;5.628;2023-02-18T11:39:33;101709.88;;;12.72;90.61
46303;BME280;32029;51.358;5.628;2023-02-18T11:42:03;101747.72;;;13.01;91.21
46303;BME280;32029;51.358;5.628;2023-02-18T11:44:36;101753.53;;;13.06;91.17
46303;BME280;32029;51.358;5.628;2023-02-18T11:49:44;101740.09;;;13.11;91.34
46303;BME280;32029;51.358;5.628;2023-02-18T11:52:36;101733.34;;;13.14;91.21
46303;BME280;32029;51.358;5.628;2023-02-18T11:58:03;101742.81;;;13.19;90.33
46303;BME280;32029;51.358;5.628;2023-02-18T12:00:43;101721.81;;;13.18;90.04
46303;BME280;32029;51.358;5.628;2023-02-18T12:03:43;101734.88;;;13.24;89.58
46303;BME280;32029;51.358;5.628;2023-02-18T12:06:26;101748.94;;;13.30;89.68
46303;BME280;32029;51.358;5.628;2023-02-18T12:08:57;101739.75;;;13.37;89.46
46303;BME280;32029;51.358;5.628;2023-02-18T12:11:30;101747.13;;;13.45;89.18
46303;BME280;32029;51.358;5.628;2023-02-18T12:13:59;101748.47;;;13.49;88.99
46303;BME280;32029;51.358;5.628;2023-02-18T12:22:23;101751.06;;;13.51;90.12
46303;BME280;32029;51.358;5.628;2023-02-18T12:27:37;101745.91;;;13.47;91.47
46303;BME280;32029;51.358;5.628;2023-02-18T12:30:29;101745.72;;;13.49;92.41
46303;BME280;32029;51.358;5.628;2023-02-18T12:38:52;101738.69;;;13.46;93.54
46303;BME280;32029;51.358;5.628;2023-02-18T12:44:33;101730.84;;;13.58;92.87
46303;BME280;32029;51.358;5.628;2023-02-18T12:47:33;101735.59;;;13.64;92.47
46303;BME280;32029;51.358;5.628;2023-02-18T12:56:06;101723.22;;;13.60;91.21
46303;BME280;32029;51.358;5.628;2023-02-18T13:04:02;101727.06;;;13.74;91.54
46303;BME280;32029;51.358;5.628;2023-02-18T13:06:57;101740.09;;;13.80;91.04
46303;BME280;32029;51.358;5.628;2023-02-18T13:15:07;101721.09;;;13.85;90.89
46303;BME280;32029;51.358;5.628;2023-02-18T13:17:41;101728.03;;;13.96;90.88
46303;BME280;32029;51.358;5.628;2023-02-18T13:20:24;101738.72;;;13.99;90.47
46303;BME280;32029;51.358;5.628;2023-02-18T13:22:55;101691.38;;;13.72;90.65
46303;BME280;32029;51.358;5.628;2023-02-18T13:25:22;101728.03;;;13.96;90.28
46303;BME280;32029;51.358;5.628;2023-02-18T13:30:33;101714.34;;;13.88;90.18
46303;BME280;32029;51.358;5.628;2023-02-18T13:33:20;101726.25;;;14.03;89.81
46303;BME280;32029;51.358;5.628;2023-02-18T13:35:59;101731.28;;;14.00;90.01
46303;BME280;32029;51.358;5.628;2023-02-18T13:38:59;101727.31;;;14.02;90.34
46303;BME280;32029;51.358;5.628;2023-02-18T13:41:28;101726.94;;;14.05;90.35
46303;BME280;32029;51.358;5.628;2023-02-18T13:44:00;101692.75;;;13.91;90.39
46303;BME280;32029;51.358;5.628;2023-02-18T13:46:26;101716.47;;;14.15;90.12
46303;BME280;32029;51.358;5.628;2023-02-18T13:56:54;101731.59;;;14.05;91.44
46303;BME280;32029;51.358;5.628;2023-02-18T13:59:33;101730.06;;;14.02;91.99
46303;BME280;32029;51.358;5.628;2023-02-18T14:02:31;101728.44;;;13.93;92.61
46303;BME280;32029;51.358;5.628;2023-02-18T14:12:41;101726.78;;;13.84;94.07
46303;BME280;32029;51.358;5.628;2023-02-18T14:18:06;101736.03;;;13.91;94.16
46303;BME280;32029;51.358;5.628;2023-02-18T14:25:53;101728.13;;;13.88;94.14
46303;BME280;32029;51.358;5.628;2023-02-18T14:31:31;101733.19;;;13.99;93.56
46303;BME280;32029;51.358;5.628;2023-02-18T14:34:04;101725.19;;;14.04;93.42
46303;BME280;32029;51.358;5.628;2023-02-18T14:42:11;101715.72;;;14.21;92.47
46303;BME280;32029;51.358;5.628;2023-02-18T14:44:52;101710.84;;;14.23;91.81
46303;BME280;32029;51.358;5.628;2023-02-18T14:50:17;101698.09;;;14.22;90.37
46303;BME280;32029;51.358;5.628;2023-02-18T14:52:54;101631.09;;;13.84;89.97
46303;BME280;32029;51.358;5.628;2023-02-18T14:55:42;101709.44;;;14.28;89.35
46303;BME280;32029;51.358;5.628;2023-02-18T15:01:21;101713.59;;;14.23;89.31
46303;BME280;32029;51.358;5.628;2023-02-18T15:03:49;101694.78;;;14.12;89.67
46303;BME280;32029;51.358;5.628;2023-02-18T15:06:35;101713.59;;;14.23;89.48
46303;BME280;32029;51.358;5.628;2023-02-18T15:09:19;101711.31;;;14.27;89.21
46303;BME280;32029;51.358;5.628;2023-02-18T15:11:49;101714.56;;;14.31;89.04
46303;BME280;32029;51.358;5.628;2023-02-18T15:14:19;101700.88;;;14.22;88.53
46303;BME280;32029;51.358;5.628;2023-02-18T15:16:49;101713.13;;;14.35;88.49
46303;BME280;32029;51.358;5.628;2023-02-18T15:19:19;101720.19;;;14.37;88.16
46303;BME280;32029;51.358;5.628;2023-02-18T15:21:49;101720.41;;;14.36;88.02